createdAt,value
2017-10-07T00:01:03.623Z,1019.58
2017-10-07T00:02:12.597Z,1019.54
2017-10-07T00:03:21.297Z,1019.54
2017-10-07T00:04:31.242Z,1019.52
2017-10-07T00:05:40.240Z,1019.52
2017-10-07T00:06:49.251Z,1019.52
2017-10-07T00:07:58.853Z,1019.48
2017-10-07T00:09:08.163Z,1019.47
2017-10-07T00:10:17.469Z,1019.51
2017-10-07T00:11:26.459Z,1019.46
2017-10-07T00:12:36.080Z,1019.43
2017-10-07T00:13:45.698Z,1019.47
2017-10-07T00:14:54.687Z,1019.48
2017-10-07T00:16:03.967Z,1019.42
2017-10-07T00:17:13.253Z,1019.45
2017-10-07T00:18:23.171Z,1019.44
2017-10-07T00:19:32.525Z,1019.43
2017-10-07T00:20:42.458Z,1019.41
2017-10-07T00:21:52.089Z,1019.41
2017-10-07T00:23:01.092Z,1019.39
2017-10-07T00:24:09.766Z,1019.4
2017-10-07T00:25:18.437Z,1019.42
2017-10-07T00:26:27.436Z,1019.39
2017-10-07T00:27:36.747Z,1019.38
2017-10-07T00:28:45.408Z,1019.32
2017-10-07T00:29:54.377Z,1019.34
2017-10-07T00:31:03.054Z,1019.32
2017-10-07T00:32:12.338Z,1019.23
2017-10-07T00:33:21.020Z,1019.21
2017-10-07T00:34:29.989Z,1019.21
2017-10-07T00:35:38.975Z,1019.21
2017-10-07T00:36:47.644Z,1019.28
2017-10-07T00:37:57.254Z,1019.29
2017-10-07T00:39:06.249Z,1019.24
2017-10-07T00:40:15.233Z,1019.22
2017-10-07T00:41:24.229Z,1019.2
2017-10-07T00:42:32.917Z,1019.17
2017-10-07T00:43:41.904Z,1019.21
2017-10-07T00:44:50.894Z,1019.22
2017-10-07T00:45:59.864Z,1019.18
2017-10-07T00:47:08.549Z,1019.19
2017-10-07T00:48:17.824Z,1019.18
2017-10-07T00:49:27.132Z,1019.23
2017-10-07T00:50:35.814Z,1019.16
2017-10-07T00:51:44.491Z,1019.2
2017-10-07T00:52:53.147Z,1019.21
2017-10-07T00:54:02.777Z,1019.18
2017-10-07T00:55:11.780Z,1019.19
2017-10-07T00:56:21.411Z,1019.19
2017-10-07T00:57:30.420Z,1019.23
2017-10-07T00:58:39.421Z,1019.16
2017-10-07T00:59:48.764Z,1019.2
2017-10-07T01:00:58.074Z,1019.22
2017-10-07T01:02:07.386Z,1019.17
2017-10-07T01:03:17.011Z,1019.21
2017-10-07T01:04:25.994Z,1019.18
2017-10-07T01:05:34.658Z,1019.15
2017-10-07T01:06:43.316Z,1019.14
2017-10-07T01:07:52.328Z,1019.15
2017-10-07T01:09:01.610Z,1019.18
2017-10-07T01:10:10.591Z,1019.17
2017-10-07T01:11:20.202Z,1019.15
2017-10-07T01:12:28.864Z,1019.12
2017-10-07T01:13:37.837Z,1019.13
2017-10-07T01:14:47.211Z,1019.05
2017-10-07T01:15:56.801Z,1019.09
2017-10-07T01:17:05.477Z,1019.04
2017-10-07T01:18:15.087Z,1019
2017-10-07T01:19:24.717Z,1018.97
2017-10-07T01:20:33.699Z,1018.95
2017-10-07T01:21:42.680Z,1018.95
2017-10-07T01:22:51.336Z,1018.91
2017-10-07T01:23:59.994Z,1018.9
2017-10-07T01:25:09.292Z,1018.88
2017-10-07T01:26:18.595Z,1018.9
2017-10-07T01:27:27.254Z,1018.88
2017-10-07T01:28:36.576Z,1018.88
2017-10-07T01:29:46.502Z,1018.85
2017-10-07T01:30:55.179Z,1018.85
2017-10-07T01:32:04.488Z,1018.82
2017-10-07T01:33:13.194Z,1018.87
2017-10-07T01:34:21.934Z,1018.85
2017-10-07T01:35:30.919Z,1018.83
2017-10-07T01:36:40.218Z,1018.83
2017-10-07T01:37:48.902Z,1018.82
2017-10-07T01:38:57.570Z,1018.78
2017-10-07T01:40:06.571Z,1018.72
2017-10-07T01:41:15.549Z,1018.71
2017-10-07T01:42:24.522Z,1018.68
2017-10-07T01:43:33.511Z,1018.68
2017-10-07T01:44:42.167Z,1018.66
2017-10-07T01:45:50.841Z,1018.69
2017-10-07T01:46:59.825Z,1018.68
2017-10-07T01:48:09.123Z,1018.67
2017-10-07T01:49:18.422Z,1018.68
2017-10-07T01:50:27.413Z,1018.66
2017-10-07T01:51:36.093Z,1018.65
2017-10-07T01:52:44.759Z,1018.65
2017-10-07T01:53:53.751Z,1018.66
2017-10-07T01:55:03.366Z,1018.62
2017-10-07T01:56:12.349Z,1018.64
2017-10-07T01:57:21.013Z,1018.56
2017-10-07T01:58:30.629Z,1018.51
2017-10-07T01:59:39.619Z,1018.44
2017-10-07T02:00:48.933Z,1018.43
2017-10-07T02:01:57.917Z,1018.46
2017-10-07T02:03:06.585Z,1018.4
2017-10-07T02:04:15.568Z,1018.41
2017-10-07T02:05:24.541Z,1018.39
2017-10-07T02:06:33.834Z,1018.41
2017-10-07T02:07:43.134Z,1018.39
2017-10-07T02:08:51.808Z,1018.39
2017-10-07T02:10:00.784Z,1018.36
2017-10-07T02:11:09.473Z,1018.4
2017-10-07T02:12:18.773Z,1018.42
2017-10-07T02:13:27.742Z,1018.46
2017-10-07T02:14:37.064Z,1018.48
2017-10-07T02:15:46.045Z,1018.45
2017-10-07T02:16:55.026Z,1018.43
2017-10-07T02:18:03.719Z,1018.42
2017-10-07T02:19:13.008Z,1018.39
2017-10-07T02:20:22.367Z,1018.4
2017-10-07T02:21:31.449Z,1018.38
2017-10-07T02:22:40.771Z,1018.41
2017-10-07T02:23:49.514Z,1018.38
2017-10-07T02:24:58.485Z,1018.41
2017-10-07T02:26:08.111Z,1018.47
2017-10-07T02:27:16.773Z,1018.4
2017-10-07T02:28:25.753Z,1018.4
2017-10-07T02:29:35.348Z,1018.42
2017-10-07T02:30:44.008Z,1018.46
2017-10-07T02:31:52.668Z,1018.48
2017-10-07T02:33:01.962Z,1018.49
2017-10-07T02:34:11.243Z,1018.48
2017-10-07T02:35:20.245Z,1018.49
2017-10-07T02:36:29.868Z,1018.46
2017-10-07T02:37:38.549Z,1018.43
2017-10-07T02:38:47.836Z,1018.41
2017-10-07T02:39:57.436Z,1018.4
2017-10-07T02:41:06.814Z,1018.38
2017-10-07T02:42:15.855Z,1018.43
2017-10-07T02:43:24.846Z,1018.42
2017-10-07T02:44:33.816Z,1018.37
2017-10-07T02:45:42.798Z,1018.35
2017-10-07T02:46:51.766Z,1018.33
2017-10-07T02:48:01.359Z,1018.34
2017-10-07T02:49:10.639Z,1018.34
2017-10-07T02:50:19.618Z,1018.34
2017-10-07T02:51:28.582Z,1018.33
2017-10-07T02:52:37.876Z,1018.36
2017-10-07T02:53:46.528Z,1018.37
2017-10-07T02:54:55.509Z,1018.41
2017-10-07T02:56:04.529Z,1018.42
2017-10-07T02:57:13.500Z,1018.42
2017-10-07T02:58:22.473Z,1018.39
2017-10-07T02:59:31.144Z,1018.38
2017-10-07T03:00:39.829Z,1018.4
2017-10-07T03:01:48.501Z,1018.34
2017-10-07T03:02:57.485Z,1018.37
2017-10-07T03:04:06.458Z,1018.37
2017-10-07T03:05:15.758Z,1018.35
2017-10-07T03:06:25.053Z,1018.35
2017-10-07T03:07:34.330Z,1018.36
2017-10-07T03:08:43.317Z,1018.33
2017-10-07T03:09:52.396Z,1018.35
2017-10-07T03:11:01.046Z,1018.36
2017-10-07T03:12:10.327Z,1018.32
2017-10-07T03:13:19.315Z,1018.34
2017-10-07T03:14:28.030Z,1018.33
2017-10-07T03:15:36.705Z,1018.33
2017-10-07T03:16:45.675Z,1018.35
2017-10-07T03:17:54.958Z,1018.29
2017-10-07T03:19:03.966Z,1018.31
2017-10-07T03:20:12.931Z,1018.32
2017-10-07T03:21:21.594Z,1018.28
2017-10-07T03:22:30.252Z,1018.31
2017-10-07T03:23:39.243Z,1018.3
2017-10-07T03:24:47.899Z,1018.28
2017-10-07T03:25:57.191Z,1018.29
2017-10-07T03:27:05.849Z,1018.29
2017-10-07T03:28:14.831Z,1018.24
2017-10-07T03:29:23.492Z,1018.3
2017-10-07T03:30:32.472Z,1018.22
2017-10-07T03:31:41.452Z,1018.24
2017-10-07T03:32:51.053Z,1018.2
2017-10-07T03:34:00.354Z,1018.23
2017-10-07T03:35:09.332Z,1018.23
2017-10-07T03:36:18.002Z,1018.2
2017-10-07T03:37:26.730Z,1018.22
2017-10-07T03:38:35.725Z,1018.19
2017-10-07T03:39:45.025Z,1018.19
2017-10-07T03:40:53.688Z,1018.21
2017-10-07T03:42:02.978Z,1018.21
2017-10-07T03:43:12.278Z,1018.19
2017-10-07T03:44:21.265Z,1018.14
2017-10-07T03:45:30.240Z,1018.1
2017-10-07T03:46:39.537Z,1018.12
2017-10-07T03:47:48.829Z,1018.07
2017-10-07T03:48:57.497Z,1018.07
2017-10-07T03:50:06.166Z,1018.07
2017-10-07T03:51:15.473Z,1018.06
2017-10-07T03:52:25.075Z,1018.07
2017-10-07T03:53:33.756Z,1018.03
2017-10-07T03:54:43.098Z,1018.06
2017-10-07T03:55:52.388Z,1018.07
2017-10-07T03:57:01.061Z,1018.01
2017-10-07T03:58:10.030Z,1018.04
2017-10-07T03:59:18.701Z,1017.99
2017-10-07T04:00:28.279Z,1017.97
2017-10-07T04:01:37.871Z,1017.96
2017-10-07T04:02:47.474Z,1017.95
2017-10-07T04:03:57.091Z,1017.94
2017-10-07T04:05:06.380Z,1017.95
2017-10-07T04:06:15.984Z,1017.94
2017-10-07T04:07:25.271Z,1017.9
2017-10-07T04:08:34.247Z,1017.94
2017-10-07T04:09:43.223Z,1017.89
2017-10-07T04:10:52.230Z,1017.85
2017-10-07T04:12:01.550Z,1017.81
2017-10-07T04:13:10.214Z,1017.81
2017-10-07T04:14:18.910Z,1017.8
2017-10-07T04:15:27.714Z,1017.78
2017-10-07T04:16:37.021Z,1017.82
2017-10-07T04:17:46.016Z,1017.79
2017-10-07T04:18:55.314Z,1017.76
2017-10-07T04:20:04.305Z,1017.76
2017-10-07T04:21:12.977Z,1017.77
2017-10-07T04:22:22.279Z,1017.72
2017-10-07T04:23:31.356Z,1017.74
2017-10-07T04:24:40.324Z,1017.74
2017-10-07T04:25:49.006Z,1017.74
2017-10-07T04:26:58.310Z,1017.73
2017-10-07T04:28:07.627Z,1017.74
2017-10-07T04:29:16.602Z,1017.71
2017-10-07T04:30:25.567Z,1017.68
2017-10-07T04:31:34.859Z,1017.7
2017-10-07T04:32:44.146Z,1017.7
2017-10-07T04:33:53.746Z,1017.72
2017-10-07T04:35:03.045Z,1017.72
2017-10-07T04:36:11.706Z,1017.72
2017-10-07T04:37:21.009Z,1017.7
2017-10-07T04:38:30.053Z,1017.67
2017-10-07T04:39:39.039Z,1017.68
2017-10-07T04:40:48.034Z,1017.73
2017-10-07T04:41:57.026Z,1017.73
2017-10-07T04:43:06.639Z,1017.75
2017-10-07T04:44:16.244Z,1017.81
2017-10-07T04:45:25.229Z,1017.8
2017-10-07T04:46:34.660Z,1017.85
2017-10-07T04:47:43.652Z,1017.9
2017-10-07T04:48:52.623Z,1017.97
2017-10-07T04:50:01.280Z,1017.94
2017-10-07T04:51:10.274Z,1017.96
2017-10-07T04:52:19.901Z,1018.01
2017-10-07T04:53:28.566Z,1018
2017-10-07T04:54:37.567Z,1017.97
2017-10-07T04:55:46.238Z,1017.99
2017-10-07T04:56:55.207Z,1017.92
2017-10-07T04:58:03.870Z,1017.97
2017-10-07T04:59:13.171Z,1017.89
2017-10-07T05:00:22.506Z,1017.95
2017-10-07T05:01:31.812Z,1017.97
2017-10-07T05:02:40.502Z,1017.94
2017-10-07T05:03:49.183Z,1017.92
2017-10-07T05:04:58.486Z,1017.9
2017-10-07T05:06:07.791Z,1017.89
2017-10-07T05:07:16.775Z,1017.87
2017-10-07T05:08:25.754Z,1017.91
2017-10-07T05:09:34.510Z,1017.88
2017-10-07T05:10:43.170Z,1017.88
2017-10-07T05:11:52.147Z,1017.91
2017-10-07T05:13:01.453Z,1017.89
2017-10-07T05:14:10.479Z,1017.9
2017-10-07T05:15:19.452Z,1017.84
2017-10-07T05:16:28.111Z,1017.86
2017-10-07T05:17:37.423Z,1017.88
2017-10-07T05:18:46.750Z,1017.85
2017-10-07T05:19:55.414Z,1017.88
2017-10-07T05:21:04.868Z,1017.83
2017-10-07T05:22:14.164Z,1017.88
2017-10-07T05:23:23.467Z,1017.89
2017-10-07T05:24:32.138Z,1017.86
2017-10-07T05:25:41.475Z,1017.82
2017-10-07T05:26:50.473Z,1017.86
2017-10-07T05:27:59.479Z,1017.79
2017-10-07T05:29:08.463Z,1017.76
2017-10-07T05:30:18.078Z,1017.74
2017-10-07T05:31:27.066Z,1017.74
2017-10-07T05:32:36.682Z,1017.74
2017-10-07T05:33:45.371Z,1017.7
2017-10-07T05:34:54.036Z,1017.64
2017-10-07T05:36:03.098Z,1017.63
2017-10-07T05:37:11.862Z,1017.58
2017-10-07T05:38:20.708Z,1017.61
2017-10-07T05:39:29.392Z,1017.59
2017-10-07T05:40:38.681Z,1017.6
2017-10-07T05:41:47.981Z,1017.6
2017-10-07T05:42:56.982Z,1017.59
2017-10-07T05:44:05.980Z,1017.55
2017-10-07T05:45:14.665Z,1017.57
2017-10-07T05:46:23.667Z,1017.57
2017-10-07T05:47:32.664Z,1017.55
2017-10-07T05:48:41.335Z,1017.55
2017-10-07T05:49:50.326Z,1017.58
2017-10-07T05:50:58.996Z,1017.61
2017-10-07T05:52:08.054Z,1017.54
2017-10-07T05:53:16.715Z,1017.58
2017-10-07T05:54:25.376Z,1017.49
2017-10-07T05:55:34.673Z,1017.53
2017-10-07T05:56:43.985Z,1017.49
2017-10-07T05:57:52.965Z,1017.54
2017-10-07T05:59:02.261Z,1017.52
2017-10-07T06:00:11.243Z,1017.47
2017-10-07T06:01:20.644Z,1017.48
2017-10-07T06:02:29.703Z,1017.48
2017-10-07T06:03:39.090Z,1017.5
2017-10-07T06:04:47.785Z,1017.49
2017-10-07T06:05:57.095Z,1017.48
2017-10-07T06:07:06.083Z,1017.38
2017-10-07T06:08:14.760Z,1017.4
2017-10-07T06:09:23.749Z,1017.44
2017-10-07T06:10:33.667Z,1017.42
2017-10-07T06:11:42.654Z,1017.42
2017-10-07T06:12:51.955Z,1017.41
2017-10-07T06:14:00.952Z,1017.42
2017-10-07T06:15:10.249Z,1017.45
2017-10-07T06:16:19.276Z,1017.38
2017-10-07T06:17:28.328Z,1017.32
2017-10-07T06:18:37.767Z,1017.3
2017-10-07T06:19:46.762Z,1017.3
2017-10-07T06:20:55.750Z,1017.28
2017-10-07T06:22:04.742Z,1017.31
2017-10-07T06:23:13.729Z,1017.28
2017-10-07T06:24:23.047Z,1017.23
2017-10-07T06:25:32.059Z,1017.22
2017-10-07T06:26:40.746Z,1017.26
2017-10-07T06:27:49.745Z,1017.31
2017-10-07T06:28:58.741Z,1017.36
2017-10-07T06:30:08.054Z,1017.36
2017-10-07T06:31:17.046Z,1017.36
2017-10-07T06:32:26.010Z,1017.3
2017-10-07T06:33:35.302Z,1017.31
2017-10-07T06:34:44.279Z,1017.31
2017-10-07T06:35:53.267Z,1017.3
2017-10-07T06:37:02.879Z,1017.23
2017-10-07T06:38:11.558Z,1017.26
2017-10-07T06:39:20.859Z,1017.24
2017-10-07T06:40:30.458Z,1017.22
2017-10-07T06:41:39.742Z,1017.2
2017-10-07T06:42:48.730Z,1017.13
2017-10-07T06:43:57.709Z,1017.08
2017-10-07T06:45:06.689Z,1017.11
2017-10-07T06:46:16.315Z,1017.06
2017-10-07T06:47:25.282Z,1017.01
2017-10-07T06:48:34.592Z,1017.06
2017-10-07T06:49:43.916Z,1017.06
2017-10-07T06:50:52.924Z,1017.07
2017-10-07T06:52:01.923Z,1017.01
2017-10-07T06:53:10.894Z,1017.01
2017-10-07T06:54:19.869Z,1016.99
2017-10-07T06:55:29.481Z,1016.99
2017-10-07T06:56:38.769Z,1016.99
2017-10-07T06:57:47.743Z,1017.04
2017-10-07T06:58:56.750Z,1017.04
2017-10-07T07:00:05.403Z,1017.04
2017-10-07T07:01:14.703Z,1017
2017-10-07T07:02:24.346Z,1017.02
2017-10-07T07:03:33.332Z,1016.96
2017-10-07T07:04:42.335Z,1016.94
2017-10-07T07:05:52.154Z,1016.95
2017-10-07T07:07:01.876Z,1016.96
2017-10-07T07:08:11.671Z,1016.94
2017-10-07T07:09:22.091Z,1016.95
2017-10-07T07:10:31.362Z,1016.97
2017-10-07T07:11:40.769Z,1016.98
2017-10-07T07:12:50.076Z,1016.96
2017-10-07T07:13:59.065Z,1016.93
2017-10-07T07:15:08.069Z,1016.93
2017-10-07T07:16:18.827Z,1016.95
2017-10-07T07:17:29.003Z,1016.94
2017-10-07T07:18:38.322Z,1016.89
2017-10-07T07:19:47.737Z,1016.89
2017-10-07T07:20:57.138Z,1016.85
2017-10-07T07:22:07.081Z,1016.85
2017-10-07T07:23:16.137Z,1016.87
2017-10-07T07:24:24.855Z,1016.84
2017-10-07T07:25:33.885Z,1016.77
2017-10-07T07:26:42.852Z,1016.77
2017-10-07T07:27:52.447Z,1016.76
2017-10-07T07:29:01.111Z,1016.73
2017-10-07T07:30:10.149Z,1016.78
2017-10-07T07:31:19.492Z,1016.74
2017-10-07T07:32:28.404Z,1016.72
2017-10-07T07:33:38.033Z,1016.69
2017-10-07T07:34:47.697Z,1016.68
2017-10-07T07:35:56.698Z,1016.67
2017-10-07T07:37:06.020Z,1016.69
2017-10-07T07:38:14.758Z,1016.66
2017-10-07T07:39:24.471Z,1016.66
2017-10-07T07:40:33.469Z,1016.65
2017-10-07T07:41:43.128Z,1016.65
2017-10-07T07:42:52.415Z,1016.68
2017-10-07T07:44:01.080Z,1016.64
2017-10-07T07:45:10.445Z,1016.71
2017-10-07T07:46:19.495Z,1016.66
2017-10-07T07:47:28.162Z,1016.66
2017-10-07T07:48:36.831Z,1016.71
2017-10-07T07:49:45.824Z,1016.72
2017-10-07T07:50:54.826Z,1016.72
2017-10-07T07:52:04.106Z,1016.69
2017-10-07T07:53:13.097Z,1016.75
2017-10-07T07:54:22.441Z,1016.74
2017-10-07T07:55:31.438Z,1016.7
2017-10-07T07:56:40.207Z,1016.7
2017-10-07T07:57:49.489Z,1016.64
2017-10-07T07:58:58.770Z,1016.65
2017-10-07T08:00:07.552Z,1016.65
2017-10-07T08:01:16.526Z,1016.61
2017-10-07T08:02:26.144Z,1016.64
2017-10-07T08:03:34.808Z,1016.6
2017-10-07T08:04:44.418Z,1016.59
2017-10-07T08:05:53.741Z,1016.54
2017-10-07T08:07:03.113Z,1016.55
2017-10-07T08:08:12.721Z,1016.59
2017-10-07T08:09:21.780Z,1016.57
2017-10-07T08:10:30.768Z,1016.6
2017-10-07T08:11:40.076Z,1016.58
2017-10-07T08:12:49.359Z,1016.57
2017-10-07T08:13:58.670Z,1016.61
2017-10-07T08:15:07.364Z,1016.6
2017-10-07T08:16:16.666Z,1016.58
2017-10-07T08:17:25.949Z,1016.59
2017-10-07T08:18:34.636Z,1016.59
2017-10-07T08:19:43.305Z,1016.61
2017-10-07T08:20:52.027Z,1016.59
2017-10-07T08:22:01.145Z,1016.58
2017-10-07T08:23:10.435Z,1016.55
2017-10-07T08:24:19.466Z,1016.55
2017-10-07T08:25:28.452Z,1016.54
2017-10-07T08:26:37.121Z,1016.54
2017-10-07T08:27:46.421Z,1016.52
2017-10-07T08:28:55.409Z,1016.5
2017-10-07T08:30:04.396Z,1016.47
2017-10-07T08:31:13.999Z,1016.44
2017-10-07T08:32:23.597Z,1016.43
2017-10-07T08:33:33.303Z,1016.4
2017-10-07T08:34:42.013Z,1016.36
2017-10-07T08:35:50.719Z,1016.33
2017-10-07T08:36:59.403Z,1016.32
2017-10-07T08:38:08.725Z,1016.32
2017-10-07T08:39:17.853Z,1016.31
2017-10-07T08:40:27.206Z,1016.28
2017-10-07T08:41:36.523Z,1016.29
2017-10-07T08:42:45.257Z,1016.29
2017-10-07T08:43:54.312Z,1016.27
2017-10-07T08:45:03.640Z,1016.22
2017-10-07T08:46:12.707Z,1016.21
2017-10-07T08:47:21.770Z,1016.22
2017-10-07T08:48:30.821Z,1016.23
2017-10-07T08:49:39.662Z,1016.27
2017-10-07T08:50:49.186Z,1016.21
2017-10-07T08:51:58.178Z,1016.2
2017-10-07T08:53:07.242Z,1016.19
2017-10-07T08:54:16.874Z,1016.15
2017-10-07T08:55:25.893Z,1016.11
2017-10-07T08:56:34.945Z,1016.11
2017-10-07T08:57:43.960Z,1016.05
2017-10-07T08:58:52.928Z,1016.04
2017-10-07T09:00:01.923Z,1015.99
2017-10-07T09:01:11.247Z,1015.97
2017-10-07T09:02:20.946Z,1016.01
2017-10-07T09:03:30.335Z,1015.96
2017-10-07T09:04:39.055Z,1016.02
2017-10-07T09:05:48.551Z,1016.03
2017-10-07T09:06:58.486Z,1016.01
2017-10-07T09:08:07.195Z,1015.94
2017-10-07T09:09:16.209Z,1015.97
2017-10-07T09:10:24.946Z,1015.89
2017-10-07T09:11:34.936Z,1015.82
2017-10-07T09:12:43.613Z,1015.81
2017-10-07T09:13:53.550Z,1015.83
2017-10-07T09:15:02.255Z,1015.83
2017-10-07T09:16:11.577Z,1015.86
2017-10-07T09:17:20.718Z,1015.87
2017-10-07T09:18:29.718Z,1015.87
2017-10-07T09:19:38.390Z,1015.83
2017-10-07T09:20:47.107Z,1015.89
2017-10-07T09:21:56.409Z,1015.83
2017-10-07T09:23:05.076Z,1015.88
2017-10-07T09:24:13.824Z,1015.91
2017-10-07T09:25:22.877Z,1015.83
2017-10-07T09:26:31.858Z,1015.83
2017-10-07T09:27:40.540Z,1015.84
2017-10-07T09:28:49.259Z,1015.81
2017-10-07T09:29:58.645Z,1015.75
2017-10-07T09:31:07.321Z,1015.72
2017-10-07T09:32:15.987Z,1015.67
2017-10-07T09:33:25.018Z,1015.67
2017-10-07T09:34:34.193Z,1015.72
2017-10-07T09:35:43.518Z,1015.62
2017-10-07T09:36:52.577Z,1015.57
2017-10-07T09:38:01.306Z,1015.6
2017-10-07T09:39:10.626Z,1015.57
2017-10-07T09:40:19.975Z,1015.56
2017-10-07T09:41:29.170Z,1015.52
2017-10-07T09:42:38.690Z,1015.51
2017-10-07T09:43:47.777Z,1015.49
2017-10-07T09:44:56.810Z,1015.49
2017-10-07T09:46:05.826Z,1015.53
2017-10-07T09:47:14.858Z,1015.52
2017-10-07T09:48:23.537Z,1015.42
2017-10-07T09:49:32.517Z,1015.34
2017-10-07T09:50:41.656Z,1015.31
2017-10-07T09:51:50.958Z,1015.27
2017-10-07T09:53:00.255Z,1015.33
2017-10-07T09:54:09.563Z,1015.28
2017-10-07T09:55:18.855Z,1015.27
2017-10-07T09:56:28.834Z,1015.25
2017-10-07T09:57:37.793Z,1015.26
2017-10-07T09:58:46.793Z,1015.23
2017-10-07T09:59:55.565Z,1015.2
2017-10-07T10:01:04.552Z,1015.19
2017-10-07T10:02:13.208Z,1015.11
2017-10-07T10:03:22.187Z,1015.15
2017-10-07T10:04:31.166Z,1015.13
2017-10-07T10:05:40.136Z,1015.12
2017-10-07T10:06:49.132Z,1015.13
2017-10-07T10:07:57.952Z,1015.1
2017-10-07T10:09:07.270Z,1015.12
2017-10-07T10:10:16.238Z,1015.15
2017-10-07T10:11:24.928Z,1015.16
2017-10-07T10:12:33.893Z,1015.15
2017-10-07T10:13:43.211Z,1015.11
2017-10-07T10:14:52.182Z,1015.07
2017-10-07T10:16:01.164Z,1015.14
2017-10-07T10:17:10.166Z,1015.15
2017-10-07T10:18:19.163Z,1015.18
2017-10-07T10:19:28.120Z,1015.14
2017-10-07T10:20:37.101Z,1015.17
2017-10-07T10:21:46.085Z,1015.1
2017-10-07T10:22:55.067Z,1014.99
2017-10-07T10:24:03.738Z,1014.99
2017-10-07T10:25:13.124Z,1014.95
2017-10-07T10:26:22.422Z,1014.95
2017-10-07T10:27:31.406Z,1014.89
2017-10-07T10:28:40.478Z,1014.92
2017-10-07T10:29:49.792Z,1014.89
2017-10-07T10:30:59.095Z,1014.9
2017-10-07T10:32:08.065Z,1014.9
2017-10-07T10:33:17.064Z,1014.88
2017-10-07T10:34:26.149Z,1014.92
2017-10-07T10:35:35.526Z,1014.89
2017-10-07T10:36:44.266Z,1014.86
2017-10-07T10:37:53.590Z,1014.8
2017-10-07T10:39:02.322Z,1014.78
2017-10-07T10:40:11.355Z,1014.77
2017-10-07T10:41:20.080Z,1014.75
2017-10-07T10:42:28.878Z,1014.69
2017-10-07T10:43:38.176Z,1014.68
2017-10-07T10:44:46.911Z,1014.68
2017-10-07T10:45:56.256Z,1014.66
2017-10-07T10:47:05.706Z,1014.58
2017-10-07T10:48:14.402Z,1014.6
2017-10-07T10:49:23.434Z,1014.61
2017-10-07T10:50:32.904Z,1014.52
2017-10-07T10:51:41.850Z,1014.52
2017-10-07T10:52:51.238Z,1014.54
2017-10-07T10:54:00.615Z,1014.52
2017-10-07T10:55:09.926Z,1014.55
2017-10-07T10:56:18.656Z,1014.55
2017-10-07T10:57:27.646Z,1014.5
2017-10-07T10:58:36.635Z,1014.43
2017-10-07T10:59:46.238Z,1014.51
2017-10-07T11:00:55.229Z,1014.53
2017-10-07T11:02:04.531Z,1014.5
2017-10-07T11:03:13.823Z,1014.55
2017-10-07T11:04:23.117Z,1014.52
2017-10-07T11:05:32.424Z,1014.48
2017-10-07T11:06:41.718Z,1014.46
2017-10-07T11:07:51.035Z,1014.47
2017-10-07T11:09:00.356Z,1014.43
2017-10-07T11:10:09.032Z,1014.45
2017-10-07T11:11:18.176Z,1014.42
2017-10-07T11:12:26.868Z,1014.29
2017-10-07T11:13:35.863Z,1014.26
2017-10-07T11:14:44.904Z,1014.28
2017-10-07T11:15:53.590Z,1014.25
2017-10-07T11:17:02.266Z,1014.2
2017-10-07T11:18:11.607Z,1014.2
2017-10-07T11:19:20.281Z,1014.18
2017-10-07T11:20:29.568Z,1014.14
2017-10-07T11:21:38.584Z,1014.15
2017-10-07T11:22:47.562Z,1014.11
2017-10-07T11:23:56.533Z,1014.07
2017-10-07T11:25:05.204Z,1014.01
2017-10-07T11:26:14.316Z,1013.97
2017-10-07T11:27:22.982Z,1013.97
2017-10-07T11:28:32.165Z,1013.94
2017-10-07T11:29:41.174Z,1013.93
2017-10-07T11:30:50.173Z,1013.88
2017-10-07T11:31:59.501Z,1013.88
2017-10-07T11:33:09.464Z,1013.89
2017-10-07T11:34:18.550Z,1013.89
2017-10-07T11:35:27.849Z,1013.86
2017-10-07T11:36:36.559Z,1013.89
2017-10-07T11:37:45.627Z,1013.89
2017-10-07T11:38:54.931Z,1013.92
2017-10-07T11:40:03.912Z,1013.89
2017-10-07T11:41:12.677Z,1013.91
2017-10-07T11:42:21.489Z,1013.92
2017-10-07T11:43:31.164Z,1013.95
2017-10-07T11:44:40.142Z,1013.9
2017-10-07T11:45:49.449Z,1013.87
2017-10-07T11:46:58.442Z,1013.91
2017-10-07T11:48:07.144Z,1013.9
2017-10-07T11:49:16.142Z,1013.85
2017-10-07T11:50:24.813Z,1013.84
2017-10-07T11:51:34.123Z,1013.81
2017-10-07T11:52:42.796Z,1013.79
2017-10-07T11:53:51.497Z,1013.74
2017-10-07T11:55:00.515Z,1013.72
2017-10-07T11:56:09.510Z,1013.7
2017-10-07T11:57:18.257Z,1013.66
2017-10-07T11:58:27.238Z,1013.64
2017-10-07T11:59:36.837Z,1013.6
2017-10-07T12:00:46.136Z,1013.54
2017-10-07T12:01:54.804Z,1013.49
2017-10-07T12:03:04.298Z,1013.5
2017-10-07T12:04:13.373Z,1013.47
2017-10-07T12:05:22.378Z,1013.46
2017-10-07T12:06:31.686Z,1013.44
2017-10-07T12:07:41.381Z,1013.41
2017-10-07T12:08:50.528Z,1013.36
2017-10-07T12:09:59.225Z,1013.36
2017-10-07T12:11:08.557Z,1013.42
2017-10-07T12:12:18.244Z,1013.41
2017-10-07T12:13:27.545Z,1013.37
2017-10-07T12:14:36.557Z,1013.35
2017-10-07T12:15:45.228Z,1013.32
2017-10-07T12:16:54.204Z,1013.28
2017-10-07T12:18:02.886Z,1013.3
2017-10-07T12:19:11.900Z,1013.29
2017-10-07T12:20:21.197Z,1013.24
2017-10-07T12:21:30.807Z,1013.24
2017-10-07T12:22:40.110Z,1013.25
2017-10-07T12:23:49.143Z,1013.27
2017-10-07T12:24:58.839Z,1013.25
2017-10-07T12:26:08.208Z,1013.28
2017-10-07T12:27:17.528Z,1013.25
2017-10-07T12:28:26.513Z,1013.23
2017-10-07T12:29:35.497Z,1013.17
2017-10-07T12:30:44.660Z,1013.16
2017-10-07T12:31:53.648Z,1013.08
2017-10-07T12:33:02.955Z,1013.11
2017-10-07T12:34:12.305Z,1013.11
2017-10-07T12:35:21.006Z,1013.06
2017-10-07T12:36:29.995Z,1013.05
2017-10-07T12:37:38.845Z,1013.03
2017-10-07T12:38:48.183Z,1013.02
2017-10-07T12:39:57.688Z,1012.97
2017-10-07T12:41:06.964Z,1013
2017-10-07T12:42:16.604Z,1012.97
2017-10-07T12:43:25.582Z,1013
2017-10-07T12:44:34.659Z,1012.94
2017-10-07T12:45:43.984Z,1012.95
2017-10-07T12:46:53.031Z,1012.94
2017-10-07T12:48:02.127Z,1012.88
2017-10-07T12:49:10.889Z,1012.81
2017-10-07T12:50:19.895Z,1012.78
2017-10-07T12:51:29.503Z,1012.75
2017-10-07T12:52:38.478Z,1012.72
2017-10-07T12:53:47.161Z,1012.69
2017-10-07T12:54:56.139Z,1012.63
2017-10-07T12:56:05.124Z,1012.62
2017-10-07T12:57:13.793Z,1012.59
2017-10-07T12:58:22.782Z,1012.49
2017-10-07T12:59:32.078Z,1012.53
2017-10-07T13:00:41.359Z,1012.46
2017-10-07T13:01:51.007Z,1012.42
2017-10-07T13:02:59.990Z,1012.38
2017-10-07T13:04:08.996Z,1012.39
2017-10-07T13:05:17.992Z,1012.36
2017-10-07T13:06:26.990Z,1012.33
2017-10-07T13:07:36.268Z,1012.28
2017-10-07T13:08:45.230Z,1012.28
2017-10-07T13:09:54.205Z,1012.3
2017-10-07T13:11:03.856Z,1012.23
2017-10-07T13:12:13.162Z,1012.2
2017-10-07T13:13:21.845Z,1012.16
2017-10-07T13:14:30.560Z,1012.13
2017-10-07T13:15:39.540Z,1012.07
2017-10-07T13:16:48.848Z,1012.05
2017-10-07T13:17:58.291Z,1011.99
2017-10-07T13:19:07.944Z,1011.98
2017-10-07T13:20:17.567Z,1011.89
2017-10-07T13:21:26.876Z,1011.81
2017-10-07T13:22:35.856Z,1011.91
2017-10-07T13:23:44.537Z,1011.89
2017-10-07T13:24:53.560Z,1011.91
2017-10-07T13:26:02.831Z,1011.88
2017-10-07T13:27:12.133Z,1011.84
2017-10-07T13:28:21.094Z,1011.83
2017-10-07T13:29:30.523Z,1011.83
2017-10-07T13:30:39.495Z,1011.82
2017-10-07T13:31:48.142Z,1011.8
2017-10-07T13:32:56.809Z,1011.82
2017-10-07T13:34:05.787Z,1011.78
2017-10-07T13:35:14.766Z,1011.76
2017-10-07T13:36:23.742Z,1011.73
2017-10-07T13:37:33.138Z,1011.76
2017-10-07T13:38:42.111Z,1011.69
2017-10-07T13:39:50.795Z,1011.69
2017-10-07T13:41:00.406Z,1011.62
2017-10-07T13:42:09.382Z,1011.65
2017-10-07T13:43:18.667Z,1011.65
2017-10-07T13:44:28.278Z,1011.68
2017-10-07T13:45:37.566Z,1011.69
2017-10-07T13:46:47.214Z,1011.67
2017-10-07T13:47:56.518Z,1011.71
2017-10-07T13:49:06.144Z,1011.65
2017-10-07T13:50:15.148Z,1011.67
2017-10-07T13:51:23.810Z,1011.62
2017-10-07T13:52:32.579Z,1011.62
2017-10-07T13:53:41.556Z,1011.58
2017-10-07T13:54:50.547Z,1011.58
2017-10-07T13:55:59.530Z,1011.55
2017-10-07T13:57:08.507Z,1011.46
2017-10-07T13:58:18.518Z,1011.42
2017-10-07T13:59:27.195Z,1011.47